createdAt,value
2023-05-21T00:01:54.750Z,100.00
2023-05-21T00:04:21.484Z,100.00
2023-05-21T00:06:48.036Z,100.00
2023-05-21T00:09:14.622Z,100.00
2023-05-21T00:11:41.380Z,100.00
2023-05-21T00:14:08.077Z,100.00
2023-05-21T00:16:34.723Z,100.00
2023-05-21T00:19:02.441Z,100.00
2023-05-21T00:21:29.821Z,100.00
2023-05-21T00:23:56.721Z,100.00
2023-05-21T00:26:26.595Z,100.00
2023-05-21T00:28:53.160Z,100.00
2023-05-21T00:31:19.886Z,100.00
2023-05-21T00:33:46.616Z,100.00
2023-05-21T00:36:14.562Z,100.00
2023-05-21T00:38:43.884Z,100.00
2023-05-21T00:41:11.080Z,100.00
2023-05-21T00:43:40.550Z,100.00
2023-05-21T00:46:08.778Z,100.00
2023-05-21T00:48:35.551Z,100.00
2023-05-21T00:51:02.419Z,100.00
2023-05-21T00:53:30.290Z,100.00
2023-05-21T00:55:57.758Z,100.00
2023-05-21T00:58:24.507Z,100.00
2023-05-21T01:00:51.487Z,100.00
2023-05-21T01:03:18.297Z,100.00
2023-05-21T01:05:47.106Z,100.00
2023-05-21T01:08:15.219Z,100.00
2023-05-21T01:10:42.045Z,100.00
2023-05-21T01:13:08.738Z,100.00
2023-05-21T01:15:36.109Z,100.00
2023-05-21T01:18:03.110Z,100.00
2023-05-21T01:20:32.323Z,100.00
2023-05-21T01:22:59.465Z,100.00
2023-05-21T01:25:26.301Z,100.00
2023-05-21T01:27:53.083Z,100.00
2023-05-21T01:30:21.990Z,100.00
2023-05-21T01:33:00.907Z,100.00
2023-05-21T01:35:30.107Z,100.00
2023-05-21T01:38:15.657Z,100.00
2023-05-21T01:40:52.225Z,100.00
2023-05-21T01:43:20.189Z,100.00
2023-05-21T01:45:47.997Z,100.00
2023-05-21T01:48:15.165Z,100.00
2023-05-21T01:50:44.641Z,100.00
2023-05-21T01:53:11.321Z,100.00
2023-05-21T01:55:42.046Z,100.00
2023-05-21T01:58:08.981Z,100.00
2023-05-21T02:00:36.006Z,100.00
2023-05-21T02:03:02.859Z,100.00
2023-05-21T02:05:29.521Z,100.00
2023-05-21T02:07:57.324Z,100.00
2023-05-21T02:10:23.950Z,100.00
2023-05-21T02:12:50.980Z,100.00
2023-05-21T02:15:20.443Z,100.00
2023-05-21T02:17:47.406Z,100.00
2023-05-21T02:20:14.692Z,100.00
2023-05-21T02:22:43.668Z,100.00
2023-05-21T02:25:12.085Z,100.00
2023-05-21T02:27:40.782Z,100.00
2023-05-21T02:30:09.532Z,100.00
2023-05-21T02:32:36.693Z,100.00
2023-05-21T02:35:04.889Z,100.00
2023-05-21T02:37:34.015Z,100.00
2023-05-21T02:40:02.505Z,100.00
2023-05-21T02:42:29.247Z,100.00
2023-05-21T02:44:56.664Z,100.00
2023-05-21T02:47:23.996Z,100.00
2023-05-21T02:49:51.896Z,100.00
2023-05-21T02:52:22.166Z,100.00
2023-05-21T02:54:48.980Z,100.00
2023-05-21T02:57:16.071Z,100.00
2023-05-21T02:59:42.661Z,100.00
2023-05-21T03:02:09.382Z,100.00
2023-05-21T03:04:39.176Z,100.00
2023-05-21T03:07:06.425Z,100.00
2023-05-21T03:09:32.969Z,100.00
2023-05-21T03:11:59.591Z,100.00
2023-05-21T03:14:26.229Z,100.00
2023-05-21T03:16:54.383Z,100.00
2023-05-21T03:19:21.536Z,100.00
2023-05-21T03:21:49.248Z,100.00
2023-05-21T03:24:16.002Z,100.00
2023-05-21T03:26:42.607Z,100.00
2023-05-21T03:29:09.350Z,100.00
2023-05-21T03:31:36.041Z,100.00
2023-05-21T03:34:02.661Z,100.00
2023-05-21T03:36:29.504Z,100.00
2023-05-21T03:38:56.202Z,100.00
2023-05-21T03:41:23.176Z,100.00
2023-05-21T03:43:49.748Z,100.00
2023-05-21T03:46:16.573Z,100.00
2023-05-21T03:48:43.264Z,100.00
2023-05-21T03:51:09.846Z,100.00
2023-05-21T03:53:37.147Z,100.00
2023-05-21T03:56:03.941Z,100.00
2023-05-21T03:58:31.124Z,100.00
2023-05-21T04:00:57.872Z,100.00
2023-05-21T04:03:25.010Z,100.00
2023-05-21T04:05:51.837Z,100.00
2023-05-21T04:08:18.486Z,100.00
2023-05-21T04:10:45.227Z,100.00
2023-05-21T04:13:11.922Z,100.00
2023-05-21T04:15:38.909Z,100.00
2023-05-21T04:18:07.424Z,100.00
2023-05-21T04:20:34.154Z,100.00
2023-05-21T04:23:01.309Z,100.00
2023-05-21T04:25:27.917Z,100.00
2023-05-21T04:27:54.985Z,100.00
2023-05-21T04:30:22.199Z,100.00
2023-05-21T04:32:49.058Z,100.00
2023-05-21T04:35:16.203Z,100.00
2023-05-21T04:37:42.889Z,100.00
2023-05-21T04:40:10.115Z,100.00
2023-05-21T04:42:36.858Z,100.00
2023-05-21T04:45:03.625Z,100.00
2023-05-21T04:47:30.490Z,100.00
2023-05-21T04:49:57.216Z,100.00
2023-05-21T04:52:25.208Z,100.00
2023-05-21T04:54:52.034Z,100.00
2023-05-21T04:57:18.765Z,100.00
2023-05-21T04:59:45.470Z,100.00
2023-05-21T05:02:12.048Z,100.00
2023-05-21T05:04:38.909Z,100.00
2023-05-21T05:07:05.655Z,100.00
2023-05-21T05:09:32.330Z,100.00
2023-05-21T05:11:59.042Z,100.00
2023-05-21T05:14:25.768Z,100.00
2023-05-21T05:16:52.509Z,100.00
2023-05-21T05:19:19.308Z,100.00
2023-05-21T05:21:46.552Z,100.00
2023-05-21T05:24:13.284Z,100.00
2023-05-21T05:26:39.880Z,100.00
2023-05-21T05:29:06.571Z,100.00
2023-05-21T05:31:33.289Z,100.00
2023-05-21T05:33:59.927Z,100.00
2023-05-21T05:36:27.295Z,100.00
2023-05-21T05:38:53.797Z,100.00
2023-05-21T05:41:21.201Z,100.00
2023-05-21T05:43:48.180Z,100.00
2023-05-21T05:46:14.827Z,100.00
2023-05-21T05:48:41.515Z,100.00
2023-05-21T05:51:08.307Z,100.00
2023-05-21T05:53:35.009Z,100.00
2023-05-21T05:56:01.741Z,100.00
2023-05-21T05:58:29.970Z,100.00
2023-05-21T06:00:56.552Z,100.00
2023-05-21T06:03:23.349Z,100.00
2023-05-21T06:05:50.513Z,100.00
2023-05-21T06:08:17.267Z,100.00
2023-05-21T06:10:43.848Z,100.00
2023-05-21T06:13:10.484Z,100.00
2023-05-21T06:15:37.280Z,100.00
2023-05-21T06:18:04.202Z,100.00
2023-05-21T06:20:31.003Z,100.00
2023-05-21T06:22:57.586Z,100.00
2023-05-21T06:25:25.996Z,100.00
2023-05-21T06:27:52.832Z,100.00
2023-05-21T06:30:19.598Z,100.00
2023-05-21T06:32:46.661Z,100.00
2023-05-21T06:35:13.517Z,100.00
2023-05-21T06:37:40.204Z,100.00
2023-05-21T06:40:07.854Z,100.00
2023-05-21T06:42:34.816Z,100.00
2023-05-21T06:45:02.177Z,100.00
2023-05-21T06:47:28.638Z,99.27
2023-05-21T06:49:55.331Z,100.00
2023-05-21T06:52:22.079Z,99.21
2023-05-21T06:54:48.836Z,100.00
2023-05-21T06:57:16.438Z,100.00
2023-05-21T06:59:43.277Z,100.00
2023-05-21T07:02:09.910Z,100.00
2023-05-21T07:04:37.063Z,100.00
2023-05-21T07:07:06.309Z,99.68
2023-05-21T07:09:32.884Z,98.54
2023-05-21T07:11:59.604Z,98.76
2023-05-21T07:14:26.788Z,98.03
2023-05-21T07:16:53.890Z,97.48
2023-05-21T07:19:20.604Z,98.10
2023-05-21T07:21:47.495Z,96.13
2023-05-21T07:24:14.124Z,93.62
2023-05-21T07:26:41.265Z,93.64
2023-05-21T07:29:08.038Z,95.21
2023-05-21T07:31:34.737Z,93.32
2023-05-21T07:34:01.580Z,91.48
2023-05-21T07:36:28.232Z,90.64
2023-05-21T07:38:55.144Z,89.52
2023-05-21T07:41:22.206Z,89.56
2023-05-21T07:43:49.092Z,88.87
2023-05-21T07:46:15.860Z,90.25
2023-05-21T07:48:43.893Z,89.86
2023-05-21T07:51:11.678Z,88.82
2023-05-21T07:53:38.589Z,87.78
2023-05-21T07:56:05.417Z,87.20
2023-05-21T07:58:32.696Z,87.01
2023-05-21T08:00:59.352Z,84.79
2023-05-21T08:03:26.852Z,83.46
2023-05-21T08:05:53.516Z,81.70
2023-05-21T08:08:22.168Z,79.35
2023-05-21T08:10:49.268Z,78.31
2023-05-21T08:13:16.640Z,77.84
2023-05-21T08:15:43.667Z,78.23
2023-05-21T08:18:10.579Z,77.38
2023-05-21T08:20:37.648Z,80.61
2023-05-21T08:23:04.517Z,80.03
2023-05-21T08:25:31.540Z,80.40
2023-05-21T08:27:58.322Z,81.99
2023-05-21T08:30:24.943Z,80.33
2023-05-21T08:32:51.616Z,77.91
2023-05-21T08:35:18.375Z,78.04
2023-05-21T08:37:44.935Z,78.53
2023-05-21T08:40:12.608Z,77.40
2023-05-21T08:42:49.558Z,76.27
2023-05-21T08:45:23.495Z,75.16
2023-05-21T08:47:57.644Z,74.47
2023-05-21T08:50:28.290Z,74.14
2023-05-21T08:52:55.619Z,74.83
2023-05-21T08:55:25.042Z,76.81
2023-05-21T08:57:54.714Z,76.04
2023-05-21T09:00:21.474Z,74.33
2023-05-21T09:02:48.304Z,73.66
2023-05-21T09:05:15.321Z,73.81
2023-05-21T09:07:52.313Z,73.64
2023-05-21T09:10:27.267Z,72.60
2023-05-21T09:12:54.161Z,72.65
2023-05-21T09:15:21.247Z,74.63
2023-05-21T09:17:51.007Z,74.02
2023-05-21T09:20:17.979Z,74.28
2023-05-21T09:22:46.659Z,73.50
2023-05-21T09:25:29.459Z,74.50
2023-05-21T09:27:56.742Z,76.55
2023-05-21T09:30:26.802Z,76.43
2023-05-21T09:33:00.068Z,75.47
2023-05-21T09:35:27.110Z,74.54
2023-05-21T09:37:54.227Z,75.62
2023-05-21T09:40:22.406Z,74.50
2023-05-21T09:42:51.122Z,73.59
2023-05-21T09:45:28.286Z,73.16
2023-05-21T09:47:56.295Z,73.23
2023-05-21T09:50:29.843Z,72.75
2023-05-21T09:52:56.623Z,74.63
2023-05-21T09:55:24.041Z,74.56
2023-05-21T09:57:51.568Z,73.98
2023-05-21T10:00:21.363Z,75.16
2023-05-21T10:02:50.010Z,75.00
2023-05-21T10:05:17.675Z,74.37
2023-05-21T10:07:51.977Z,74.92
2023-05-21T10:10:21.530Z,75.95
2023-05-21T10:12:52.274Z,76.53
2023-05-21T10:15:23.984Z,74.55
2023-05-21T10:17:52.346Z,73.42
2023-05-21T10:20:19.714Z,72.43
2023-05-21T10:22:46.892Z,71.36
2023-05-21T10:25:13.604Z,70.54
2023-05-21T10:27:41.666Z,70.88
2023-05-21T10:30:09.602Z,72.84
2023-05-21T10:32:36.377Z,73.09
2023-05-21T10:35:03.375Z,72.29
2023-05-21T10:37:30.072Z,69.79
2023-05-21T10:39:57.357Z,69.61
2023-05-21T10:42:23.962Z,68.21
2023-05-21T10:45:12.500Z,68.96
2023-05-21T10:48:00.413Z,68.92
2023-05-21T10:50:38.668Z,66.03
2023-05-21T10:53:45.921Z,66.97
2023-05-21T10:56:25.507Z,65.54
2023-05-21T10:59:12.184Z,64.52
2023-05-21T11:01:40.758Z,65.65
2023-05-21T11:04:07.850Z,63.87
2023-05-21T11:06:34.509Z,63.77
2023-05-21T11:09:11.878Z,65.42
2023-05-21T11:11:48.708Z,63.81
2023-05-21T11:14:35.583Z,63.97
2023-05-21T11:17:03.513Z,63.70
2023-05-21T11:19:48.263Z,64.13
2023-05-21T11:22:26.171Z,64.25
2023-05-21T11:24:54.589Z,63.31
2023-05-21T11:27:33.908Z,64.58
2023-05-21T11:30:04.554Z,64.05
2023-05-21T11:32:31.766Z,65.40
2023-05-21T11:35:03.997Z,64.06
2023-05-21T11:37:31.978Z,62.60
2023-05-21T11:40:17.221Z,62.47
2023-05-21T11:42:44.299Z,61.45
2023-05-21T11:45:11.244Z,60.63
2023-05-21T11:47:37.967Z,59.74
2023-05-21T11:50:05.150Z,58.06
2023-05-21T11:52:33.318Z,57.99
2023-05-21T11:55:00.387Z,57.58
2023-05-21T11:57:31.557Z,59.14
2023-05-21T12:00:02.693Z,59.48
2023-05-21T12:02:33.307Z,58.98
2023-05-21T12:05:00.606Z,59.84
2023-05-21T12:07:31.394Z,58.04
2023-05-21T12:09:58.844Z,58.21
2023-05-21T12:12:30.785Z,57.45
2023-05-21T12:15:03.166Z,57.43
2023-05-21T12:17:31.835Z,56.58
2023-05-21T12:19:59.172Z,57.10
2023-05-21T12:22:28.049Z,54.48
2023-05-21T12:24:54.968Z,54.76
2023-05-21T12:27:22.535Z,56.63
2023-05-21T12:29:51.885Z,57.43
2023-05-21T12:32:20.791Z,56.46
2023-05-21T12:34:52.769Z,55.87
2023-05-21T12:37:23.201Z,55.28
2023-05-21T12:39:55.409Z,55.08
2023-05-21T12:42:35.027Z,56.36
2023-05-21T12:45:06.856Z,56.47
2023-05-21T12:47:33.869Z,55.44
2023-05-21T12:50:02.061Z,56.55
2023-05-21T12:52:29.658Z,57.33
2023-05-21T12:54:57.210Z,56.81
2023-05-21T12:57:35.017Z,56.13
2023-05-21T13:00:04.523Z,56.86
2023-05-21T13:02:33.321Z,55.67
2023-05-21T13:05:07.775Z,56.34
2023-05-21T13:07:38.456Z,55.62
2023-05-21T13:10:06.381Z,56.01
2023-05-21T13:12:34.170Z,56.96
2023-05-21T13:15:03.395Z,56.51
2023-05-21T13:17:30.785Z,56.87
2023-05-21T13:20:15.132Z,56.62
2023-05-21T13:22:44.265Z,56.07
2023-05-21T13:25:11.952Z,55.19
2023-05-21T13:27:42.006Z,54.49
2023-05-21T13:30:09.644Z,52.99
2023-05-21T13:32:36.933Z,53.26
2023-05-21T13:35:04.066Z,53.29
2023-05-21T13:37:31.028Z,52.47
2023-05-21T13:39:57.832Z,52.02
2023-05-21T13:42:24.477Z,53.97
2023-05-21T13:44:51.201Z,51.59
2023-05-21T13:47:17.782Z,51.62
2023-05-21T13:49:44.332Z,51.02
2023-05-21T13:52:11.889Z,48.95
2023-05-21T13:54:38.582Z,48.65
2023-05-21T13:57:05.435Z,48.98
2023-05-21T13:59:33.837Z,48.96
2023-05-21T14:02:01.136Z,48.02
2023-05-21T14:04:27.818Z,48.13
2023-05-21T14:06:54.531Z,46.92
2023-05-21T14:09:21.510Z,47.91
2023-05-21T14:11:48.080Z,48.40
2023-05-21T14:14:18.966Z,47.66
2023-05-21T14:16:47.389Z,46.77
2023-05-21T14:19:14.942Z,47.66
2023-05-21T14:21:42.198Z,47.00
2023-05-21T14:24:08.971Z,47.10
2023-05-21T14:26:40.265Z,47.20
2023-05-21T14:29:07.387Z,47.50
2023-05-21T14:31:34.230Z,47.93
2023-05-21T14:34:01.997Z,49.33
2023-05-21T14:36:29.308Z,49.53
2023-05-21T14:38:56.267Z,50.14
2023-05-21T14:41:26.907Z,49.87
2023-05-21T14:43:53.957Z,49.16
2023-05-21T14:46:21.027Z,48.28
2023-05-21T14:48:47.767Z,47.68
2023-05-21T14:51:14.614Z,48.46
2023-05-21T14:53:41.332Z,47.87
2023-05-21T14:56:08.519Z,47.29
2023-05-21T14:58:35.238Z,47.54
2023-05-21T15:01:02.697Z,48.13
2023-05-21T15:03:29.458Z,48.56
2023-05-21T15:05:56.373Z,49.54
2023-05-21T15:08:23.110Z,49.57
2023-05-21T15:10:49.626Z,49.78
2023-05-21T15:13:16.302Z,47.72
2023-05-21T15:15:43.048Z,48.12
2023-05-21T15:18:09.791Z,48.52
2023-05-21T15:20:36.475Z,49.23
2023-05-21T15:25:32.655Z,46.73
2023-05-21T15:27:59.579Z,46.95
2023-05-21T15:30:27.455Z,47.94
2023-05-21T15:32:54.462Z,48.12
2023-05-21T15:35:21.204Z,47.88
2023-05-21T15:37:47.834Z,48.12
2023-05-21T15:40:14.678Z,47.84
2023-05-21T15:42:41.347Z,48.86
2023-05-21T15:45:08.502Z,47.87
2023-05-21T15:47:35.178Z,46.99
2023-05-21T15:50:01.815Z,48.71
2023-05-21T15:52:28.538Z,49.37
2023-05-21T15:54:55.184Z,51.29
2023-05-21T15:57:22.026Z,51.59
2023-05-21T15:59:50.595Z,52.36
2023-05-21T16:02:17.258Z,51.78
2023-05-21T16:04:43.922Z,51.58
2023-05-21T16:07:10.604Z,52.34
2023-05-21T16:09:38.383Z,53.31
2023-05-21T16:12:05.468Z,51.82
2023-05-21T16:14:32.096Z,52.50
2023-05-21T16:16:58.795Z,52.59
2023-05-21T16:19:25.732Z,51.58
2023-05-21T16:21:52.410Z,52.31
2023-05-21T16:24:19.208Z,52.10
2023-05-21T16:26:46.480Z,52.97
2023-05-21T16:29:13.215Z,52.55
2023-05-21T16:31:40.054Z,52.39
2023-05-21T16:34:07.229Z,52.65
2023-05-21T16:36:34.130Z,52.75
2023-05-21T16:39:00.732Z,54.38
2023-05-21T16:41:27.512Z,54.45
2023-05-21T16:43:54.531Z,55.68
2023-05-21T16:46:21.786Z,57.36
2023-05-21T16:48:48.569Z,58.57
2023-05-21T16:51:15.554Z,59.20
2023-05-21T16:53:42.141Z,60.40
2023-05-21T16:56:08.954Z,60.75
2023-05-21T16:58:36.352Z,61.17
2023-05-21T17:01:04.007Z,62.21
2023-05-21T17:03:32.639Z,62.85
2023-05-21T17:05:59.383Z,63.65
2023-05-21T17:08:26.147Z,64.56
2023-05-21T17:10:52.761Z,64.73
2023-05-21T17:13:22.750Z,65.72
2023-05-21T17:15:53.129Z,65.86
2023-05-21T17:18:19.964Z,65.47
2023-05-21T17:20:46.656Z,65.69
2023-05-21T17:23:13.628Z,65.92
2023-05-21T17:25:40.826Z,66.95
2023-05-21T17:28:07.700Z,67.00
2023-05-21T17:30:34.529Z,67.19
2023-05-21T17:33:04.111Z,67.95
2023-05-21T17:35:30.782Z,67.89
2023-05-21T17:37:57.605Z,68.20
2023-05-21T17:40:25.122Z,68.48
2023-05-21T17:42:52.825Z,68.83
2023-05-21T17:45:19.630Z,68.44
2023-05-21T17:47:46.486Z,69.01
2023-05-21T17:50:13.376Z,69.54
2023-05-21T17:52:40.342Z,69.18
2023-05-21T17:55:07.992Z,70.13
2023-05-21T17:57:36.128Z,70.24
2023-05-21T18:00:05.187Z,70.36
2023-05-21T18:02:31.970Z,69.60
2023-05-21T18:04:58.753Z,69.90
2023-05-21T18:07:25.774Z,70.08
2023-05-21T18:09:52.429Z,70.71
2023-05-21T18:12:19.157Z,70.34
2023-05-21T18:14:45.990Z,70.39
2023-05-21T18:17:12.902Z,70.36
2023-05-21T18:19:39.575Z,71.27
2023-05-21T18:22:06.729Z,70.67
2023-05-21T18:24:33.561Z,71.25
2023-05-21T18:27:00.155Z,71.49
2023-05-21T18:29:26.855Z,71.70
2023-05-21T18:31:53.840Z,71.72
2023-05-21T18:34:20.571Z,72.06
2023-05-21T18:36:48.208Z,72.20
2023-05-21T18:39:14.924Z,72.24
2023-05-21T18:41:41.744Z,73.24
2023-05-21T18:44:08.600Z,73.26
2023-05-21T18:46:35.333Z,73.79
2023-05-21T18:49:02.014Z,75.21
2023-05-21T18:51:28.636Z,75.03
2023-05-21T18:53:55.250Z,75.99
2023-05-21T18:56:22.093Z,76.59
2023-05-21T18:58:48.885Z,77.07
2023-05-21T19:01:16.346Z,77.89
2023-05-21T19:03:43.311Z,79.21
2023-05-21T19:06:09.941Z,79.08
2023-05-21T19:08:36.605Z,79.99
2023-05-21T19:11:03.289Z,80.23
2023-05-21T19:13:30.046Z,80.46
2023-05-21T19:15:58.665Z,80.32
2023-05-21T19:18:30.481Z,80.93
2023-05-21T19:20:57.512Z,79.97
2023-05-21T19:23:24.981Z,80.77
2023-05-21T19:25:51.872Z,80.72
2023-05-21T19:28:19.025Z,81.91
2023-05-21T19:30:46.466Z,81.23
2023-05-21T19:33:13.344Z,81.75
2023-05-21T19:35:42.032Z,81.60
2023-05-21T19:38:11.989Z,81.23
2023-05-21T19:40:38.893Z,81.44
2023-05-21T19:43:05.779Z,81.44
2023-05-21T19:45:32.371Z,81.27
2023-05-21T19:48:00.006Z,80.50
2023-05-21T19:50:28.874Z,80.43
2023-05-21T19:52:57.345Z,80.95
2023-05-21T19:55:24.929Z,80.89
2023-05-21T19:57:51.839Z,81.40
2023-05-21T20:00:19.413Z,80.97
2023-05-21T20:02:46.470Z,82.13
2023-05-21T20:05:13.346Z,82.65
2023-05-21T20:07:40.248Z,82.25
2023-05-21T20:10:08.935Z,82.61
2023-05-21T20:12:35.865Z,82.83
2023-05-21T20:15:03.557Z,83.58
2023-05-21T20:17:30.752Z,83.69
2023-05-21T20:19:59.223Z,83.65
2023-05-21T20:22:26.098Z,84.64
2023-05-21T20:24:53.083Z,85.41
2023-05-21T20:27:20.129Z,86.14
2023-05-21T20:29:46.925Z,87.66
2023-05-21T20:32:13.562Z,89.14
2023-05-21T20:34:50.714Z,89.50
2023-05-21T20:37:27.295Z,90.29
2023-05-21T20:39:57.910Z,90.53
2023-05-21T20:42:30.954Z,90.55
2023-05-21T20:45:00.298Z,90.29
2023-05-21T20:47:30.316Z,90.36
2023-05-21T20:50:00.335Z,91.41
2023-05-21T20:52:27.106Z,90.51
2023-05-21T20:54:54.907Z,90.98
2023-05-21T20:57:26.284Z,91.56
2023-05-21T20:59:53.528Z,91.32
2023-05-21T21:02:20.768Z,91.08
2023-05-21T21:04:49.197Z,91.47
2023-05-21T21:07:18.195Z,91.11
2023-05-21T21:09:49.212Z,91.08
2023-05-21T21:12:26.106Z,90.83
2023-05-21T21:14:53.967Z,91.29
2023-05-21T21:17:20.754Z,90.53
2023-05-21T21:19:47.566Z,90.63
2023-05-21T21:22:15.705Z,91.40
2023-05-21T21:24:42.441Z,90.91
2023-05-21T21:27:09.264Z,91.83
2023-05-21T21:29:35.894Z,91.02
2023-05-21T21:32:02.604Z,91.12
2023-05-21T21:34:29.300Z,91.25
2023-05-21T21:36:56.249Z,90.71
2023-05-21T21:39:22.885Z,90.70
2023-05-21T21:41:49.548Z,91.28
2023-05-21T21:44:16.177Z,91.94
2023-05-21T21:46:42.902Z,92.95
2023-05-21T21:49:09.648Z,94.23
2023-05-21T21:51:37.028Z,95.09
2023-05-21T21:54:04.174Z,96.37
2023-05-21T21:56:31.030Z,96.46
2023-05-21T21:58:57.689Z,97.25
2023-05-21T22:01:24.474Z,97.52
2023-05-21T22:03:51.206Z,97.94
2023-05-21T22:06:17.900Z,98.47
2023-05-21T22:08:44.864Z,99.05
2023-05-21T22:11:11.778Z,99.52
2023-05-21T22:13:38.789Z,100.00
2023-05-21T22:16:05.790Z,100.00
2023-05-21T22:18:40.940Z,100.00
2023-05-21T22:21:10.397Z,100.00
2023-05-21T22:23:38.529Z,100.00
2023-05-21T22:26:05.637Z,100.00
2023-05-21T22:28:32.366Z,100.00
2023-05-21T22:30:59.567Z,100.00
2023-05-21T22:33:26.910Z,100.00
2023-05-21T22:35:54.272Z,100.00
2023-05-21T22:38:21.013Z,100.00
2023-05-21T22:40:47.716Z,100.00
2023-05-21T22:43:14.366Z,100.00
2023-05-21T22:45:40.961Z,100.00
2023-05-21T22:48:09.119Z,100.00
2023-05-21T22:50:36.269Z,100.00
2023-05-21T22:53:03.306Z,100.00
2023-05-21T22:55:29.890Z,100.00
2023-05-21T22:57:56.658Z,100.00
2023-05-21T23:00:23.555Z,100.00
2023-05-21T23:02:53.095Z,100.00
2023-05-21T23:05:20.867Z,100.00
2023-05-21T23:07:47.646Z,100.00
2023-05-21T23:10:14.615Z,100.00
2023-05-21T23:12:41.512Z,100.00
2023-05-21T23:15:10.131Z,100.00
2023-05-21T23:17:37.877Z,100.00
2023-05-21T23:20:06.405Z,100.00
2023-05-21T23:22:33.051Z,100.00
2023-05-21T23:24:59.702Z,100.00
2023-05-21T23:27:26.318Z,100.00
2023-05-21T23:29:52.890Z,99.94
2023-05-21T23:32:19.692Z,99.69
2023-05-21T23:34:46.537Z,99.37
2023-05-21T23:37:13.151Z,99.19
2023-05-21T23:39:39.969Z,98.96
2023-05-21T23:42:06.827Z,98.36
2023-05-21T23:44:33.517Z,98.17
2023-05-21T23:47:00.053Z,98.24
2023-05-21T23:49:26.620Z,99.77
2023-05-21T23:51:53.496Z,99.96
2023-05-21T23:54:20.045Z,100.00
2023-05-21T23:56:46.878Z,100.00
2023-05-21T23:59:14.184Z,100.00
